Time;durP1;ratioP1;P1;durP2;ratioP2;P2;SDS_P1;SDS_P2;PMS_P1;PMS_P2;Temp;Humidity;BMP_temperature;BMP_pressure;BME280_temperature;BME280_humidity;BME280_pressure;Samples;Min_cycle;Max_cycle;Signal;HPM_P1;HPM_P2
2024/01/04 00:00:07;;;;;;;52.33;35.88;;;;;;;14.20;100.00;101075.62;143723;572;47004;-76
2024/01/04 00:02:34;;;;;;;52.22;36.30;;;;;;;14.19;100.00;101077.53;143722;567;47008;-76
2024/01/04 00:05:00;;;;;;;50.47;34.95;;;;;;;14.16;100.00;101067.16;143723;593;47004;-79
2024/01/04 00:07:26;;;;;;;60.00;41.25;;;;;;;14.10;100.00;101074.22;143723;648;47006;-77
2024/01/04 00:09:53;;;;;;;71.12;47.25;;;;;;;14.07;100.00;101085.47;143724;579;47002;-77
2024/01/04 00:12:19;;;;;;;80.03;47.62;;;;;;;14.08;100.00;101083.56;143723;613;47011;-77
2024/01/04 00:14:46;;;;;;;73.20;46.47;;;;;;;14.08;100.00;101083.56;143721;615;47004;-76
2024/01/04 00:17:12;;;;;;;70.70;45.72;;;;;;;14.01;100.00;101074.69;143722;601;46006;-77
2024/01/04 00:19:38;;;;;;;67.47;43.10;;;;;;;13.99;100.00;101080.28;143726;569;47002;-77
2024/01/04 00:22:05;;;;;;;58.30;38.67;;;;;;;13.97;100.00;101071.56;143721;595;47008;-78
2024/01/04 00:24:31;;;;;;;59.50;38.53;;;;;;;13.98;100.00;101077.81;143721;604;47004;-77
2024/01/04 00:26:58;;;;;;;52.90;35.05;;;;;;;13.94;100.00;101063.91;143723;583;46007;-78
2024/01/04 00:29:24;;;;;;;50.55;34.72;;;;;;;13.93;100.00;101063.06;143724;569;47002;-78
2024/01/04 00:31:50;;;;;;;49.13;34.83;;;;;;;13.90;100.00;101074.28;143722;613;47010;-78
2024/01/04 00:34:17;;;;;;;51.80;34.22;;;;;;;13.80;100.00;101082.00;143721;603;47004;-79
2024/01/04 00:36:43;;;;;;;46.42;34.22;;;;;;;13.77;100.00;101085.94;143721;594;47006;-78
2024/01/04 00:39:09;;;;;;;48.03;34.58;;;;;;;13.78;100.00;101090.28;143726;597;47000;-78
2024/01/04 00:41:36;;;;;;;40.58;29.70;;;;;;;13.75;100.00;101071.84;143722;573;47009;-79
2024/01/04 00:44:02;;;;;;;35.05;25.77;;;;;;;13.73;100.00;101067.69;143721;605;47004;-78
2024/01/04 00:46:29;;;;;;;38.50;26.23;;;;;;;13.72;100.00;101068.72;143722;567;47006;-78
2024/01/04 00:48:55;;;;;;;36.05;25.88;;;;;;;13.70;100.00;101058.13;143723;568;47004;-79
2024/01/04 00:51:21;;;;;;;40.58;24.33;;;;;;;13.67;100.00;101057.75;143723;594;47002;-78
2024/01/04 00:53:47;;;;;;;35.90;24.77;;;;;;;13.71;100.00;101048.16;143721;597;47004;-78
2024/01/04 00:56:14;;;;;;;36.88;24.23;;;;;;;13.73;100.00;101041.53;143723;576;47006;-78
2024/01/04 00:58:40;;;;;;;31.70;23.75;;;;;;;13.75;100.00;101034.03;143721;572;47002;-78
2024/01/04 01:01:07;;;;;;;29.85;22.08;;;;;;;13.78;100.00;101032.78;143723;572;47008;-79
2024/01/04 01:03:33;;;;;;;30.37;22.55;;;;;;;13.77;100.00;101039.22;143724;567;47004;-78
2024/01/04 01:06:00;;;;;;;31.50;24.05;;;;;;;13.73;100.00;101052.31;143722;593;47006;-78
2024/01/04 01:08:26;;;;;;;32.28;24.23;;;;;;;13.70;100.00;101041.94;143723;588;47004;-77
2024/01/04 01:10:53;;;;;;;40.00;27.00;;;;;;;13.67;100.00;101042.34;143725;616;47008;-73
2024/01/04 01:13:22;;;;;;;35.10;24.33;;;;;;;13.72;100.00;101045.25;143721;628;48927;-79
2024/01/04 01:15:48;;;;;;;33.97;23.20;;;;;;;13.64;100.00;101037.37;143725;615;46006;-78
2024/01/04 01:18:15;;;;;;;34.30;23.95;;;;;;;13.76;100.00;101046.50;143723;581;47002;-78
2024/01/04 01:20:41;;;;;;;34.72;25.35;;;;;;;13.79;100.00;101045.25;143723;612;47011;-79
2024/01/04 01:23:08;;;;;;;34.67;22.77;;;;;;;13.77;100.00;101045.44;143721;649;47004;-78
2024/01/04 01:25:34;;;;;;;36.72;24.58;;;;;;;13.75;100.00;101042.16;143724;575;46007;-77
2024/01/04 01:28:00;;;;;;;37.17;26.62;;;;;;;13.76;100.00;101048.34;143723;570;47002;-78
2024/01/04 01:30:29;;;;;;;27.90;20.85;;;;;;;13.75;100.00;101049.41;143723;591;46918;-78
2024/01/04 01:32:55;;;;;;;27.25;16.98;;;;;;;13.79;100.00;101047.94;143721;667;47004;-77
2024/01/04 01:35:22;;;;;;;29.83;18.20;;;;;;;13.82;100.00;101050.22;143723;586;46006;-78
2024/01/04 01:37:48;;;;;;;27.52;18.98;;;;;;;13.77;100.00;101045.44;143724;598;47002;-77
2024/01/04 01:40:14;;;;;;;25.92;19.90;;;;;;;13.76;100.00;101033.00;143724;581;46020;-77
2024/01/04 01:42:46;;;;;;;28.00;18.08;;;;;;;13.78;100.00;101033.59;143722;596;47004;-77
2024/01/04 01:45:13;;;;;;;26.98;17.75;;;;;;;13.77;100.00;101026.53;143724;596;47006;-77
2024/01/04 01:47:41;;;;;;;28.05;19.80;;;;;;;13.74;100.00;101027.00;143724;584;47004;-78
2024/01/04 01:50:08;;;;;;;27.27;19.33;;;;;;;13.73;100.00;101019.09;143721;673;47011;-77
2024/01/04 01:52:36;;;;;;;28.98;19.10;;;;;;;13.74;100.00;101023.44;143721;569;47004;-79
2024/01/04 01:55:04;;;;;;;25.12;18.35;;;;;;;13.66;100.00;101016.41;143722;575;47006;-78
2024/01/04 01:57:33;;;;;;;25.30;18.20;;;;;;;13.64;100.00;101013.94;143722;577;47002;-77
2024/01/04 02:00:00;;;;;;;23.85;17.98;;;;;;;13.65;100.00;101009.34;143724;631;46010;-78
2024/01/04 04:01:44;;;;;;;25.52;13.38;;;;;;;13.34;100.00;100946.91;143734;620;47000;-79
2024/01/04 04:04:11;;;;;;;20.42;12.02;;;;;;;13.27;100.00;100942.56;143722;597;47013;-80
2024/01/04 04:06:38;;;;;;;19.90;11.98;;;;;;;13.35;100.00;100948.56;143722;624;47006;-80
2024/01/04 04:09:06;;;;;;;20.25;12.52;;;;;;;13.32;100.00;100956.28;143719;629;47925;-79
2024/01/04 04:11:33;;;;;;;16.10;10.82;;;;;;;13.39;100.00;100956.25;143723;575;47006;-78
2024/01/04 04:14:00;;;;;;;17.62;11.80;;;;;;;13.42;100.00;100953.97;143722;565;47010;-78
2024/01/04 04:16:26;;;;;;;20.52;11.27;;;;;;;13.48;100.00;100960.44;143719;664;47006;-79
2024/01/04 04:18:52;;;;;;;16.08;10.98;;;;;;;13.48;100.00;100971.22;143722;658;47008;-78
2024/01/04 04:21:22;;;;;;;15.88;11.35;;;;;;;13.50;100.00;100982.63;143723;620;47004;-78
2024/01/04 04:23:50;;;;;;;14.32;10.13;;;;;;;13.50;100.00;100985.31;143721;570;47012;-78
2024/01/04 04:26:20;;;;;;;14.20;9.57;;;;;;;13.46;100.00;100982.19;143721;573;47006;-77
2024/01/04 04:28:48;;;;;;;13.40;9.52;;;;;;;13.46;100.00;100976.00;143724;720;46008;-78
2024/01/04 04:31:15;;;;;;;15.05;9.27;;;;;;;13.48;100.00;100960.44;143725;581;47004;-77
2024/01/04 04:33:43;;;;;;;11.07;8.90;;;;;;;13.48;100.00;100953.16;143721;567;47010;-79
2024/01/04 04:36:11;;;;;;;15.43;10.68;;;;;;;13.48;100.00;100961.25;143719;574;47006;-77
2024/01/04 04:38:38;;;;;;;12.90;9.82;;;;;;;13.43;100.00;100977.22;143722;587;47008;-78
2024/01/04 04:41:05;;;;;;;12.00;8.60;;;;;;;13.40;100.00;100976.78;143726;754;46008;-77
2024/01/04 04:43:32;;;;;;;17.98;9.40;;;;;;;13.55;100.00;100982.81;143724;641;46012;-77
2024/01/04 04:45:58;;;;;;;20.50;12.52;;;;;;;13.54;100.00;100996.53;143721;573;47006;-77
2024/01/04 04:48:25;;;;;;;18.33;10.88;;;;;;;13.58;100.00;101003.16;143723;581;46009;-77
2024/01/04 04:50:53;;;;;;;14.95;9.73;;;;;;;13.72;100.00;100990.44;143723;630;47006;-77
2024/01/04 04:53:20;;;;;;;15.38;10.60;;;;;;;13.71;100.00;100989.63;143724;624;47010;-77
2024/01/04 04:55:47;;;;;;;13.77;9.88;;;;;;;13.76;100.00;100988.97;143721;619;47006;-78
2024/01/04 04:58:13;;;;;;;18.10;11.52;;;;;;;13.79;100.00;100977.75;143722;594;47008;-78
2024/01/04 05:00:39;;;;;;;27.90;16.35;;;;;;;13.74;100.00;100975.69;143724;573;47004;-78
2024/01/04 05:03:06;;;;;;;27.83;17.67;;;;;;;13.71;100.00;100972.56;143725;623;46011;-77
2024/01/04 05:05:33;;;;;;;23.60;16.33;;;;;;;13.73;100.00;100974.03;143724;596;47004;-77
2024/01/04 05:07:59;;;;;;;24.70;14.82;;;;;;;13.80;100.00;100972.13;143722;640;47008;-77
2024/01/04 05:10:26;;;;;;;21.10;14.27;;;;;;;13.85;100.00;100976.06;143724;575;47007;-78
2024/01/04 05:12:52;;;;;;;23.12;15.50;;;;;;;13.85;100.00;100973.38;143722;574;47012;-78
2024/01/04 05:15:18;;;;;;;20.40;15.05;;;;;;;13.88;100.00;100981.84;143723;566;47006;-78
2024/01/04 05:17:45;;;;;;;58.33;30.80;;;;;;;13.81;100.00;100994.56;143726;644;46009;-78
2024/01/04 05:20:12;;;;;;;73.50;37.42;;;;;;;13.85;100.00;100990.41;143725;592;47006;-78
2024/01/04 05:22:39;;;;;;;79.70;36.38;;;;;;;13.90;100.00;100993.28;143723;594;47010;-77
2024/01/04 05:25:06;;;;;;;66.87;34.30;;;;;;;13.93;100.00;100990.16;143721;656;47010;-78
2024/01/04 05:27:32;;;;;;;41.45;25.25;;;;;;;13.92;100.00;100983.09;143721;581;47004;-77
2024/01/04 05:29:59;;;;;;;33.55;21.23;;;;;;;13.90;100.00;100968.16;143725;592;47006;-78
2024/01/04 05:32:25;;;;;;;27.30;16.83;;;;;;;13.94;100.00;100969.41;143708;590;54015;-77
2024/01/04 05:34:51;;;;;;;34.83;17.12;;;;;;;13.94;100.00;100970.22;143720;605;47006;-79
2024/01/04 05:37:18;;;;;;;26.48;16.77;;;;;;;13.93;100.00;100965.84;143723;568;47008;-78
2024/01/04 05:39:45;;;;;;;26.48;17.17;;;;;;;13.94;100.00;100972.09;143725;605;47004;-78
2024/01/04 05:42:12;;;;;;;28.95;15.68;;;;;;;13.96;100.00;100967.28;143724;567;46012;-76
2024/01/04 05:44:38;;;;;;;27.42;16.17;;;;;;;14.00;100.00;100978.50;143725;596;47004;-79
2024/01/04 05:47:07;;;;;;;20.33;15.05;;;;;;;14.00;100.00;100976.63;143727;567;46008;-74
2024/01/04 05:49:36;;;;;;;35.20;16.25;;;;;;;13.96;100.00;100972.69;143730;584;46008;-73
2024/01/04 05:52:05;;;;;;;23.58;15.77;;;;;;;14.01;100.00;100994.47;143729;600;46004;-78
2024/01/04 05:54:31;;;;;;;24.92;16.75;;;;;;;14.06;100.00;100989.28;143722;603;47005;-77
2024/01/04 05:56:58;;;;;;;28.45;15.25;;;;;;;14.08;100.00;100991.75;143724;612;46920;-77
2024/01/04 05:59:24;;;;;;;25.33;15.23;;;;;;;14.09;100.00;100980.75;143724;589;47002;-77
2024/01/04 06:01:52;;;;;;;26.87;15.63;;;;;;;14.11;100.00;100994.03;143724;582;47010;-78
2024/01/04 06:04:18;;;;;;;30.27;15.48;;;;;;;14.14;100.00;100987.34;143722;572;47002;-79
2024/01/04 06:06:46;;;;;;;28.30;15.57;;;;;;;14.14;100.00;100990.88;143722;572;46006;-77
2024/01/04 06:09:13;;;;;;;23.55;15.63;;;;;;;14.10;100.00;100987.81;143723;615;47006;-76
2024/01/04 06:11:39;;;;;;;23.27;15.52;;;;;;;14.08;100.00;100989.87;143724;611;47008;-77
2024/01/04 06:14:06;;;;;;;36.83;17.25;;;;;;;14.12;100.00;100986.75;143727;585;46927;-72
2024/01/04 06:16:35;;;;;;;35.55;17.98;;;;;;;14.11;100.00;100977.81;143722;685;47006;-74
2024/01/04 06:19:01;;;;;;;30.88;19.55;;;;;;;14.15;100.00;100989.00;143724;572;47004;-74
2024/01/04 06:21:27;;;;;;;39.78;19.40;;;;;;;14.16;100.00;100983.41;143724;572;46010;-74
2024/01/04 06:23:54;;;;;;;33.38;17.67;;;;;;;14.21;100.00;100985.44;143724;578;47006;-74
2024/01/04 06:26:22;;;;;;;25.20;16.42;;;;;;;14.21;100.00;100988.97;143725;601;46006;-74
2024/01/04 06:28:48;;;;;;;30.80;17.15;;;;;;;14.27;100.00;100989.16;143724;649;47002;-73
2024/01/04 06:31:15;;;;;;;28.95;15.77;;;;;;;14.32;100.00;100979.34;143723;587;47010;-73
2024/01/04 06:33:41;;;;;;;26.17;16.92;;;;;;;14.35;100.00;100983.50;143724;583;47004;-74
2024/01/04 06:36:07;;;;;;;29.58;18.83;;;;;;;14.36;100.00;100995.97;143727;598;46019;-73
2024/01/04 06:38:37;;;;;;;44.92;22.40;;;;;;;14.30;100.00;101003.06;143726;580;47004;-73
2024/01/04 06:41:03;;;;;;;37.08;20.58;;;;;;;14.34;100.00;100982.66;143725;572;47010;-74
2024/01/04 06:43:31;;;;;;;33.65;20.33;;;;;;;14.42;100.00;100989.69;143723;618;47004;-75
2024/01/04 06:45:57;;;;;;;30.85;24.87;;;;;;;14.47;100.00;100995.28;143727;620;46007;-74
2024/01/04 06:48:24;;;;;;;27.75;23.15;;;;;;;14.50;100.00;100994.84;143723;608;47002;-74
2024/01/04 06:50:51;;;;;;;32.85;18.77;;;;;;;14.45;100.00;100993.84;143723;567;47010;-74
2024/01/04 06:53:17;;;;;;;34.63;18.92;;;;;;;14.47;100.00;100984.47;143721;569;47004;-74
2024/01/04 06:55:46;;;;;;;30.48;18.12;;;;;;;14.58;100.00;100996.44;143725;600;47006;-74
2024/01/04 06:58:13;;;;;;;34.30;19.30;;;;;;;14.64;100.00;100992.87;143726;580;47004;-74
2024/01/04 07:00:39;;;;;;;34.25;16.75;;;;;;;14.63;100.00;100988.53;143725;724;47009;-74
2024/01/04 07:03:06;;;;;;;35.92;19.70;;;;;;;14.69;100.00;101001.19;143723;570;47004;-74
2024/01/04 07:05:32;;;;;;;42.50;23.80;;;;;;;14.60;100.00;101001.62;143724;587;47006;-74
2024/01/04 07:07:59;;;;;;;36.90;23.87;;;;;;;14.70;100.00;100989.31;143727;628;47000;-74
2024/01/04 07:10:25;;;;;;;38.08;24.58;;;;;;;14.77;100.00;100994.66;143723;580;47011;-74
2024/01/04 07:12:52;;;;;;;42.65;24.48;;;;;;;14.82;100.00;100986.72;143723;669;47002;-74
2024/01/04 07:15:18;;;;;;;37.33;23.42;;;;;;;14.85;100.00;100989.00;143725;636;46007;-77
2024/01/04 07:17:44;;;;;;;33.33;21.77;;;;;;;14.90;100.00;100974.81;143726;584;47004;-77
2024/01/04 07:20:11;;;;;;;36.88;22.08;;;;;;;15.07;100.00;100975.09;143725;572;46011;-77
2024/01/04 07:22:38;;;;;;;36.65;20.95;;;;;;;15.19;100.00;100982.47;143722;573;47004;-77
2024/01/04 07:25:04;;;;;;;33.63;21.15;;;;;;;15.24;100.00;100990.75;143726;592;46019;-77
2024/01/04 07:27:31;;;;;;;30.33;16.48;;;;;;;15.22;100.00;100987.44;143727;619;47002;-77
2024/01/04 07:29:58;;;;;;;31.87;17.15;;;;;;;15.40;100.00;100992.87;143724;573;47008;-78
2024/01/04 07:32:24;;;;;;;31.12;17.10;;;;;;;15.52;100.00;101005.66;143723;616;47008;-78
2024/01/04 07:34:51;;;;;;;35.78;19.00;;;;;;;15.65;100.00;100996.56;143726;669;46014;-78
2024/01/04 07:37:18;;;;;;;35.95;20.05;;;;;;;15.82;100.00;100989.50;143729;578;47002;-79
2024/01/04 07:39:44;;;;;;;33.78;18.35;;;;;;;16.01;100.00;100986.78;143724;595;46027;-79
2024/01/04 07:42:10;;;;;;;23.73;15.57;;;;;;;16.18;100.00;100982.41;143724;580;47004;-79
2024/01/04 07:44:37;;;;;;;63.78;31.42;;;;;;;16.32;100.00;100993.03;143726;604;46018;-75
2024/01/04 07:47:03;;;;;;;47.00;28.17;;;;;;;16.48;100.00;100986.97;143725;579;47004;-78
2024/01/04 07:49:29;;;;;;;33.88;18.87;;;;;;;16.59;100.00;100988.06;143723;597;50002;-78
2024/01/04 07:51:56;;;;;;;36.00;18.12;;;;;;;16.77;100.00;100994.47;143723;648;47004;-79
2024/01/04 07:54:22;;;;;;;21.12;12.02;;;;;;;16.91;100.00;100995.06;143724;573;47006;-79
2024/01/04 07:56:49;;;;;;;22.27;10.70;;;;;;;16.99;100.00;100988.50;143726;584;47004;-73
2024/01/04 07:59:16;;;;;;;17.98;10.77;;;;;;;17.11;100.00;100987.47;143723;644;47010;-73
2024/01/04 08:01:42;;;;;;;17.83;11.43;;;;;;;17.34;100.00;100991.22;143723;579;47004;-73
2024/01/04 08:04:08;;;;;;;25.55;12.23;;;;;;;17.56;100.00;100985.97;143723;597;47006;-73
2024/01/04 08:06:35;;;;;;;19.17;13.30;;;;;;;17.70;100.00;100983.84;143726;586;47004;-72
2024/01/04 08:09:01;;;;;;;24.83;13.38;;;;;;;17.92;100.00;100975.03;143723;591;47008;-74
2024/01/04 08:11:27;;;;;;;22.62;11.45;;;;;;;18.17;100.00;100977.44;143725;568;46022;-73
2024/01/04 08:13:54;;;;;;;21.08;10.43;;;;;;;18.45;100.00;100983.09;143726;568;46006;-73
2024/01/04 08:16:20;;;;;;;17.25;12.80;;;;;;;18.61;100.00;100995.09;143725;583;47002;-73
2024/01/04 08:18:46;;;;;;;21.00;12.20;;;;;;;18.82;100.00;100995.41;143726;590;46004;-70
2024/01/04 08:21:13;;;;;;;23.15;13.27;;;;;;;18.98;100.00;100996.53;143726;572;47008;-74
2024/01/04 08:23:41;;;;;;;27.60;11.90;;;;;;;19.11;100.00;100998.91;143725;604;46007;-73
2024/01/04 08:26:08;;;;;;;19.08;12.80;;;;;;;19.26;100.00;101000.19;143725;613;47002;-73
2024/01/04 08:28:36;;;;;;;10.80;6.72;;;;;;;19.38;98.26;100990.03;143722;572;47008;-73
2024/01/04 08:31:03;;;;;;;6.40;3.45;;;;;;;19.53;95.59;100983.97;143723;600;47004;-73
2024/01/04 08:33:29;;;;;;;9.00;4.30;;;;;;;19.65;94.89;100983.84;143726;609;47006;-73
2024/01/04 08:35:56;;;;;;;5.60;3.65;;;;;;;19.84;93.54;100974.28;143725;620;47002;-73
2024/01/04 08:38:22;;;;;;;6.22;2.60;;;;;;;20.01;90.16;100972.59;143726;599;46008;-72
2024/01/04 08:40:48;;;;;;;10.05;3.70;;;;;;;20.19;89.75;100968.69;143722;580;47004;-73
2024/01/04 08:43:14;;;;;;;7.55;4.28;;;;;;;20.37;88.47;100957.41;143727;566;46006;-74
2024/01/04 08:45:41;;;;;;;10.25;5.85;;;;;;;20.64;87.47;100967.47;143725;605;47004;-73
2024/01/04 08:48:07;;;;;;;10.05;6.40;;;;;;;20.83;85.36;100953.41;143726;767;46918;-74
2024/01/04 08:50:33;;;;;;;5.07;2.67;;;;;;;21.01;84.16;100957.66;143723;980;47004;-73
2024/01/04 08:53:00;;;;;;;7.93;2.80;;;;;;;21.24;82.73;100955.63;143723;690;47000;-73
2024/01/04 08:55:26;;;;;;;2.47;1.48;;;;;;;21.46;79.49;100939.88;143725;667;47002;-73
2024/01/04 08:57:53;;;;;;;5.90;2.37;;;;;;;21.62;78.32;100953.66;143728;671;46004;-73
2024/01/04 09:00:19;;;;;;;4.35;2.22;;;;;;;21.71;75.69;100948.50;143722;623;47005;-73
2024/01/04 09:02:46;;;;;;;6.80;2.75;;;;;;;21.80;75.34;100934.00;143728;572;46006;-74
2024/01/04 09:05:12;;;;;;;5.43;2.10;;;;;;;22.04;75.29;100933.53;143727;986;47004;-73
2024/01/04 09:07:38;;;;;;;6.20;2.58;;;;;;;22.19;74.16;100932.72;143725;972;46918;-74
2024/01/04 09:10:06;;;;;;;5.65;2.53;;;;;;;22.30;71.08;100922.63;143725;643;47004;-72
2024/01/04 09:12:32;;;;;;;6.70;2.33;;;;;;;23.15;71.49;100923.09;143725;986;46008;-73
2024/01/04 09:14:59;;;;;;;6.28;2.37;;;;;;;28.57;60.91;100911.97;143725;972;47002;-72
2024/01/04 09:17:25;;;;;;;4.90;2.45;;;;;;;32.94;46.80;100889.00;143725;576;47008;-73
2024/01/04 09:19:52;;;;;;;8.30;3.22;;;;;;;35.31;40.65;100889.53;143725;599;47006;-73
2024/01/04 09:22:18;;;;;;;4.80;2.40;;;;;;;35.52;38.18;100889.22;143726;585;47009;-72
2024/01/04 09:24:45;;;;;;;4.12;2.10;;;;;;;35.05;37.17;100868.63;143723;631;47004;-74
2024/01/04 09:27:14;;;;;;;4.55;2.20;;;;;;;34.37;37.84;100870.50;143727;566;46010;-71
2024/01/04 09:29:41;;;;;;;4.55;1.87;;;;;;;33.51;38.53;100869.69;143725;591;46930;-70
2024/01/04 09:32:07;;;;;;;5.12;1.77;;;;;;;32.41;38.70;100863.75;143726;584;46008;-72
2024/01/04 09:34:34;;;;;;;3.42;1.70;;;;;;;31.65;40.49;100864.63;143726;655;47006;-71
2024/01/04 09:37:00;;;;;;;5.37;1.87;;;;;;;31.29;41.77;100877.13;143724;583;47012;-72
2024/01/04 09:39:27;;;;;;;4.35;1.80;;;;;;;31.14;42.19;100867.44;143723;631;47006;-71
2024/01/04 09:41:56;;;;;;;5.97;1.80;;;;;;;30.78;41.65;100855.69;143721;604;47008;-71
2024/01/04 09:44:24;;;;;;;3.97;1.98;;;;;;;30.39;42.67;100860.37;143725;607;47006;-74
2024/01/04 09:46:54;;;;;;;6.15;2.47;;;;;;;30.36;42.95;100861.03;143727;580;46922;-71
2024/01/04 09:49:20;;;;;;;4.22;2.12;;;;;;;30.03;42.60;100856.03;143725;633;47006;-73
2024/01/04 09:51:47;;;;;;;4.87;1.70;;;;;;;30.01;44.67;100844.47;143726;608;46009;-70
2024/01/04 09:54:16;;;;;;;7.28;3.60;;;;;;;30.09;43.70;100849.19;143726;608;47006;-71
2024/01/04 09:56:46;;;;;;;4.18;2.28;;;;;;;30.08;44.88;100837.28;143725;578;47010;-70
2024/01/04 09:59:13;;;;;;;5.97;2.20;;;;;;;30.14;43.49;100832.38;143723;676;47007;-73
2024/01/04 10:01:39;;;;;;;3.60;1.60;;;;;;;30.36;44.49;100839.66;143726;601;47008;-73
2024/01/04 10:04:13;;;;;;;5.18;2.00;;;;;;;30.75;43.53;100828.62;143726;584;47004;-71
2024/01/04 10:06:46;;;;;;;5.10;1.98;;;;;;;30.80;42.61;100833.97;143725;588;47012;-74
2024/01/04 10:09:38;;;;;;;3.70;2.40;;;;;;;30.85;42.51;100833.78;143725;662;47006;-72
2024/01/04 10:12:11;;;;;;;3.95;1.90;;;;;;;31.29;43.11;100827.97;143725;572;47008;-73
2024/01/04 10:14:38;;;;;;;7.65;3.03;;;;;;;31.63;42.34;100833.59;143725;628;47004;-74
2024/01/04 10:17:04;;;;;;;6.75;3.15;;;;;;;31.84;41.10;100822.50;143724;589;47010;-69
2024/01/04 10:19:32;;;;;;;7.07;3.70;;;;;;;32.66;42.26;100818.16;143722;588;47006;-73
2024/01/04 10:22:03;;;;;;;6.35;2.78;;;;;;;34.40;38.85;100814.00;143726;589;46009;-71
2024/01/04 10:24:37;;;;;;;5.90;2.78;;;;;;;36.35;37.35;100800.56;143725;616;47006;-72
2024/01/04 10:27:05;;;;;;;7.43;3.67;;;;;;;37.92;35.57;100805.94;143726;647;46012;-72
2024/01/04 10:29:38;;;;;;;7.47;4.10;;;;;;;39.49;33.64;100800.19;143726;624;47004;-74
2024/01/04 10:32:12;;;;;;;6.07;3.28;;;;;;;40.30;32.07;100791.50;143727;601;47008;-73
2024/01/04 10:34:39;;;;;;;8.13;3.12;;;;;;;37.49;33.32;100796.25;143726;643;47004;-73
2024/01/04 10:37:11;;;;;;;12.30;4.50;;;;;;;34.42;37.14;100801.34;143725;611;47011;-74
2024/01/04 10:39:37;;;;;;;5.75;2.55;;;;;;;32.79;37.47;100796.72;143723;582;47004;-73
2024/01/04 10:42:05;;;;;;;7.82;2.40;;;;;;;31.87;35.75;100796.81;143725;640;47008;-73
2024/01/04 10:44:35;;;;;;;5.20;1.90;;;;;;;31.27;37.27;100799.75;143725;649;47006;-72
2024/01/04 10:47:03;;;;;;;4.70;2.12;;;;;;;31.08;37.38;100797.44;143725;661;47012;-73
2024/01/04 10:49:29;;;;;;;5.32;2.25;;;;;;;30.92;37.45;100810.25;143723;589;47006;-72
2024/01/04 10:51:57;;;;;;;9.30;1.80;;;;;;;30.77;36.70;100795.00;143725;583;47008;-73
2024/01/04 10:54:34;;;;;;;5.47;1.55;;;;;;;31.10;36.41;100785.97;143726;578;47006;-72
2024/01/04 10:57:02;;;;;;;5.32;1.70;;;;;;;31.39;36.32;100790.69;143724;575;47010;-72
2024/01/04 10:59:30;;;;;;;3.42;2.10;;;;;;;31.33;36.44;100785.69;143723;574;47007;-73
2024/01/04 11:02:00;;;;;;;4.00;2.67;;;;;;;31.03;37.19;100782.94;143727;581;46008;-74
2024/01/04 11:04:29;;;;;;;5.85;2.50;;;;;;;30.85;36.67;100783.06;143729;584;47002;-74
2024/01/04 11:06:56;;;;;;;4.25;3.08;;;;;;;30.64;36.87;100771.91;143718;605;48012;-72
2024/01/04 11:09:24;;;;;;;3.90;1.65;;;;;;;30.67;37.05;100772.06;143724;621;47006;-74
2024/01/04 11:11:54;;;;;;;14.60;2.75;;;;;;;30.72;35.66;100768.28;143725;572;46008;-74
2024/01/04 11:14:21;;;;;;;2.80;1.85;;;;;;;30.66;35.96;100764.06;143725;572;47004;-72
2024/01/04 11:17:27;;;;;;;3.30;1.70;;;;;;;30.62;36.04;100771.47;143722;585;47922;-72
2024/01/04 11:20:40;;;;;;;4.57;2.40;;;;;;;30.92;36.47;100774.22;143721;606;47006;-73
2024/01/04 11:23:44;;;;;;;4.25;1.60;;;;;;;30.46;35.74;100763.66;143724;573;46023;-73
2024/01/04 11:26:27;;;;;;;6.70;2.20;;;;;;;30.16;36.52;100755.31;143724;591;47002;-74
2024/01/04 11:28:56;;;;;;;5.10;2.40;;;;;;;30.35;36.43;100751.31;143724;592;47010;-72
2024/01/04 11:31:24;;;;;;;5.90;2.30;;;;;;;30.43;36.92;100744.94;143722;714;47006;-71
2024/01/04 11:33:50;;;;;;;9.63;2.20;;;;;;;29.91;37.29;100734.84;143725;610;46008;-72
2024/01/04 11:36:23;;;;;;;5.20;2.15;;;;;;;29.68;37.39;100735.03;143725;573;47006;-74
2024/01/04 11:38:50;;;;;;;3.90;1.62;;;;;;;29.99;37.86;100722.13;143720;634;47010;-72
2024/01/04 11:41:16;;;;;;;3.35;1.27;;;;;;;30.45;36.56;100712.16;143723;631;47006;-73
2024/01/04 11:43:46;;;;;;;6.40;2.20;;;;;;;30.88;36.92;100709.47;143725;582;46019;-71
2024/01/04 11:46:23;;;;;;;6.15;2.30;;;;;;;31.37;36.32;100692.28;143724;587;47004;-73
2024/01/04 11:49:00;;;;;;;4.87;1.80;;;;;;;31.27;35.23;100693.50;143724;605;46012;-73
2024/01/04 11:51:45;;;;;;;4.00;1.65;;;;;;;31.18;35.40;100685.28;143721;567;47007;-74
2024/01/04 11:54:13;;;;;;;2.85;1.77;;;;;;;30.98;36.07;100681.31;143724;659;47008;-73
2024/01/04 11:56:40;;;;;;;3.55;1.55;;;;;;;30.85;36.28;100680.47;143724;670;47004;-73
2024/01/04 11:59:10;;;;;;;7.62;2.42;;;;;;;31.19;35.88;100674.97;143722;609;47012;-72
2024/01/04 12:01:39;;;;;;;4.68;1.90;;;;;;;31.52;35.55;100666.66;143720;625;47006;-72
2024/01/04 12:04:15;;;;;;;11.48;2.47;;;;;;;31.39;36.19;100662.22;143722;568;47008;-73
2024/01/04 12:06:43;;;;;;;3.08;1.95;;;;;;;31.33;36.32;100658.03;143723;583;47004;-73
2024/01/04 12:09:12;;;;;;;3.80;2.20;;;;;;;31.36;36.40;100660.94;143725;567;46922;-73
2024/01/04 12:11:39;;;;;;;3.58;2.08;;;;;;;31.09;36.23;100660.34;143722;627;47006;-72
2024/01/04 12:14:08;;;;;;;3.22;1.40;;;;;;;30.78;35.74;100669.91;143723;574;47009;-71
2024/01/04 12:16:34;;;;;;;4.68;1.52;;;;;;;30.45;36.73;100664.25;143723;722;47008;-77
2024/01/04 12:19:02;;;;;;;3.40;1.80;;;;;;;30.40;37.49;100660.50;143725;590;46026;-75
2024/01/04 12:21:29;;;;;;;4.95;2.30;;;;;;;30.48;36.95;100660.78;143721;578;47006;-73
2024/01/04 12:23:55;;;;;;;6.95;2.75;;;;;;;30.28;37.03;100659.59;143725;693;46008;-73
2024/01/04 12:26:23;;;;;;;6.00;2.12;;;;;;;30.24;37.70;100657.53;143722;633;47004;-76
2024/01/04 12:28:53;;;;;;;5.22;2.28;;;;;;;30.29;37.75;100652.91;143723;567;47012;-74
2024/01/04 12:31:25;;;;;;;5.87;2.97;;;;;;;29.82;36.89;100660.13;143720;609;47006;-73
2024/01/04 12:33:57;;;;;;;6.00;2.25;;;;;;;29.32;38.38;100647.69;143723;605;47008;-73
2024/01/04 12:36:25;;;;;;;3.87;1.50;;;;;;;28.97;37.78;100656.84;143725;628;47004;-73
2024/01/04 12:38:53;;;;;;;3.15;1.77;;;;;;;28.87;38.87;100646.91;143722;581;47010;-72
2024/01/04 12:41:29;;;;;;;8.88;1.62;;;;;;;28.81;38.64;100648.19;143721;580;47006;-73
2024/01/04 12:43:56;;;;;;;2.78;1.27;;;;;;;28.77;39.03;100647.22;143724;614;46009;-74
2024/01/04 12:46:23;;;;;;;3.55;1.20;;;;;;;28.46;39.06;100636.28;143724;641;47006;-73
2024/01/04 12:48:53;;;;;;;2.97;1.50;;;;;;;28.09;39.15;100639.22;143723;615;47010;-75
2024/01/04 12:51:29;;;;;;;7.40;2.25;;;;;;;27.81;39.67;100633.94;143722;576;47006;-75
2024/01/04 12:53:56;;;;;;;7.03;3.40;;;;;;;27.45;40.23;100624.63;143724;568;46022;-73
2024/01/04 12:56:22;;;;;;;5.75;2.42;;;;;;;27.27;40.34;100632.00;143722;602;47004;-74
2024/01/04 12:58:50;;;;;;;4.53;1.73;;;;;;;27.02;41.06;100625.16;143723;576;47011;-73
2024/01/04 13:01:16;;;;;;;2.62;1.90;;;;;;;26.77;40.68;100625.44;143721;604;47006;-73
2024/01/04 13:03:43;;;;;;;2.65;1.60;;;;;;;26.53;41.16;100620.19;143720;573;47008;-72
2024/01/04 13:06:09;;;;;;;3.20;1.42;;;;;;;26.38;41.74;100618.56;143725;645;47005;-73
2024/01/04 13:08:35;;;;;;;5.12;1.55;;;;;;;26.27;41.64;100628.97;143724;660;47012;-71
2024/01/04 13:11:02;;;;;;;5.55;1.50;;;;;;;26.20;41.58;100620.34;143724;722;47010;-73
2024/01/04 13:13:28;;;;;;;2.85;1.55;;;;;;;26.00;42.19;100618.78;143725;664;46008;-72